Observations for Trim Market St
| Time | AQI | Temp °C | Hum % | Pres Pa | CO μg/m³ | H₂S μg/m³ | NO μg/m³ | NO₂ μg/m³ | O₃ μg/m³ | SO₂ μg/m³ | PM1 μg/m³ | PM2.5 μg/m³ | PM10 μg/m³ |
|---|---|---|---|---|---|---|---|---|---|---|---|---|---|
| Saturday 22 August 2026 | |||||||||||||
| 13:02 | 2 | 20.6 | 45 | 64,956 | 0 | 0 | 1.35 | 5.39 | 65.48 | 0 | 0.71 | 4.22 | 4.43 |
| 12:58 | 2 | 20.7 | 46 | 64,913 | 0.11 | 0 | 2.06 | 29.41 | 54.48 | 0 | 1.43 | 4.72 | 6.76 |
| 12:57 | 2 | 20.7 | 46 | 64,872 | 0.05 | 0 | 2.07 | 35.64 | 48.69 | 0 | 1.43 | 4.19 | 4.45 |
| 12:55 | 2 | 20.8 | 46 | 64,811 | 0 | 0 | 2.01 | 17.03 | 61.07 | 0 | 0.71 | 4.18 | 5.22 |
| 12:52 | 2 | 20.9 | 46 | 64,695 | 0.11 | 0 | 2.02 | 18.67 | 60.09 | 0 | 0.71 | 3.65 | 5.23 |
| 12:43 | 2 | 21.2 | 46 | 64,611 | 0.28 | 0 | 17.16 | 53.6 | 36.52 | 0 | 0.71 | 3.14 | 3.45 |
| 12:42 | 2 | 21.3 | 46 | 64,625 | 1.04 | 13.04 | 13.5 | 54.34 | 36.64 | 0 | 0 | 3.14 | 3.68 |
| 12:41 | 2 | 21.3 | 46 | 64,674 | 2.07 | 15.42 | 7.87 | 95.8 | 15.23 | 18.27 | 0 | 2.62 | 2.89 |
| 12:40 | 2 | 21.4 | 46 | 64,744 | 0.19 | 0 | 1.84 | 40.73 | 46.44 | 0 | 0 | 2.11 | 2.14 |
| 12:39 | 2 | 21.4 | 46 | 64,799 | 0.42 | 0 | 1.85 | 16.02 | 61.87 | 0 | 0 | 2.63 | 2.9 |
| 12:38 | 2 | 21.5 | 46 | 64,839 | 0.28 | 0 | 1.83 | 37.06 | 49.31 | 0 | 0 | 2.63 | 2.9 |
| 12:37 | 2 | 21.5 | 46 | 64,890 | 0.02 | 0 | 1.66 | 25.36 | 56.76 | 0 | 0 | 2.63 | 2.9 |
| 12:36 | 2 | 21.5 | 46 | 64,929 | 0.05 | 0 | 1.58 | 24 | 59.6 | 0 | 0 | 2.64 | 2.9 |
| 12:35 | 2 | 21.6 | 46 | 64,950 | 0.08 | 0 | 1.5 | 16.57 | 61.87 | 0 | 0 | 3.16 | 3.48 |
| 12:34 | 2 | 21.6 | 46 | 64,973 | 0.08 | 0 | 1.32 | 17.14 | 61.21 | 0 | 0 | 2.64 | 2.91 |
| 12:33 | 2 | 21.6 | 45 | 64,975 | 0.03 | 0 | 1.25 | 15.51 | 63.88 | 0 | 0 | 2.13 | 2.34 |
| 12:32 | 2 | 21.7 | 45 | 64,979 | 0.04 | 0 | 1.33 | 16.55 | 62.8 | 0 | 0 | 2.65 | 2.92 |
| 12:31 | 2 | 21.7 | 45 | 65,011 | 0.23 | 0 | 1.29 | 27.76 | 56.9 | 0 | 0 | 2.65 | 2.89 |
| 12:29 | 2 | 21.7 | 45 | 65,019 | 0.2 | 0 | 1.34 | 15.5 | 63.11 | 0 | 0 | 2.14 | 2.35 |
| 12:24 | 2 | 21.7 | 45 | 65,060 | 0.12 | 0 | 1.82 | 14.61 | 63.72 | 0 | 0.71 | 3.18 | 4.43 |